Time;durP1;ratioP1;P1;durP2;ratioP2;P2;SDS_P1;SDS_P2;PMS_P1;PMS_P2;Temp;Humidity;BMP_temperature;BMP_pressure;BME280_temperature;BME280_humidity;BME280_pressure;Samples;Min_cycle;Max_cycle;Signal;HPM_P1;HPM_P2
2022/07/05 00:02:29;;;;;;;;;;;;;;;;;;4996037;28;19902;-87
2022/07/05 00:04:55;;;;;;;;;;;;;;;;;;4996173;28;19906;-87
2022/07/05 00:07:38;;;;;;;;;;;;;;;;;;4991851;28;20024;-90
2022/07/05 00:10:28;;;;;;;;;;;;;;;;;;4964986;29;19914;-89
2022/07/05 00:13:12;;;;;;;;;;;;;;;;;;4965140;28;20012;-90
2022/07/05 00:15:47;;;;;;;;;;;;;;;;;;4962605;28;19930;-90
2022/07/05 00:18:15;;;;;;;;;;;;;;;;;;4961270;28;20461;-89
2022/07/05 00:20:40;;;;;;;;;;;;;;;;;;4959277;28;20385;-88
2022/07/05 00:23:08;;;;;;;;;;;;;;;;;;4957780;29;19914;-87
2022/07/05 00:25:36;;;;;;;;;;;;;;;;;;4965055;28;20403;-90
2022/07/05 00:28:01;;;;;;;;;;;;;;;;;;4958601;28;19918;-90
2022/07/05 00:30:31;;;;;;;;;;;;;;;;;;4973109;28;19918;-87
2022/07/05 00:32:57;;;;;;;;;;;;;;;;;;4974693;28;19914;-89
2022/07/05 00:35:23;;;;;;;;;;;;;;;;;;4960020;28;20404;-90
2022/07/05 00:37:53;;;;;;;;;;;;;;;;;;4974266;28;19985;-91
2022/07/05 00:40:21;;;;;;;;;;;;;;;;;;4957772;28;20361;-89
2022/07/05 00:42:52;;;;;;;;;;;;;;;;;;4955249;29;19962;-86
2022/07/05 00:45:18;;;;;;;;;;;;;;;;;;4956470;28;19914;-89
2022/07/05 00:47:44;;;;;;;;;;;;;;;;;;4955509;29;19969;-89
2022/07/05 00:50:12;;;;;;;;;;;;;;;;;;4954874;29;19915;-88
2022/07/05 00:52:38;;;;;;;;;;;;;;;;;;4971174;28;20374;-88
2022/07/05 00:55:08;;;;;;;;;;;;;;;;;;4970508;28;19914;-89
2022/07/05 00:57:37;;;;;;;;;;;;;;;;;;4923609;29;19921;-88
2022/07/05 01:00:02;;;;;;;;;;;;;;;;;;4956217;28;19925;-89
2022/07/05 01:02:31;;;;;;;;;;;;;;;;;;4923708;29;19919;-89
2022/07/05 01:04:57;;;;;;;;;;;;;;;;;;4938393;29;19915;-89
2022/07/05 01:07:25;;;;;;;;;;;;;;;;;;4954626;29;20349;-89
2022/07/05 01:09:51;;;;;;;;;;;;;;;;;;4970780;28;20308;-89
2022/07/05 01:12:19;;;;;;;;;;;;;;;;;;4938706;29;20005;-89
2022/07/05 01:14:48;;;;;;;;;;;;;;;;;;4923693;29;20024;-91
2022/07/05 01:17:35;;;;;;;;;;;;;;;;;;4970898;28;19962;-88
2022/07/05 01:20:00;;;;;;;;;;;;;;;;;;4954798;29;19914;-89
2022/07/05 01:22:38;;;;;;;;;;;;;;;;;;4925965;29;19914;-89
2022/07/05 01:25:06;;;;;;;;;;;;;;;;;;4960764;28;19915;-90
2022/07/05 01:27:31;;;;;;;;;;;;;;;;;;4990234;28;19918;-90
2022/07/05 01:29:57;;;;;;;;;;;;;;;;;;4974484;29;19950;-88
2022/07/05 01:32:25;;;;;;;;;;;;;;;;;;4982906;28;19957;-90
2022/07/05 01:34:53;;;;;;;;;;;;;;;;;;4963821;29;20328;-89
2022/07/05 01:37:21;;;;;;;;;;;;;;;;;;4978129;28;19914;-89
2022/07/05 01:39:49;;;;;;;;;;;;;;;;;;4972083;28;19924;-89
2022/07/05 01:42:14;;;;;;;;;;;;;;;;;;4954278;29;20352;-91
2022/07/05 01:44:43;;;;;;;;;;;;;;;;;;4954431;29;19924;-90
2022/07/05 01:47:09;;;;;;;;;;;;;;;;;;4970707;28;19915;-91
2022/07/05 01:49:35;;;;;;;;;;;;;;;;;;4956550;28;19914;-90
2022/07/05 01:52:02;;;;;;;;;;;;;;;;;;4956249;28;19918;-90
2022/07/05 01:54:28;;;;;;;;;;;;;;;;;;4955821;28;19922;-90
2022/07/05 01:56:53;;;;;;;;;;;;;;;;;;4954184;29;20304;-91
2022/07/05 01:59:23;;;;;;;;;;;;;;;;;;4970192;28;20369;-89
2022/07/05 02:01:49;;;;;;;;;;;;;;;;;;4938922;29;19921;-91
2022/07/05 02:04:14;;;;;;;;;;;;;;;;;;4955577;28;20356;-89
2022/07/05 02:06:40;;;;;;;;;;;;;;;;;;4955141;29;19925;-90
2022/07/05 02:09:09;;;;;;;;;;;;;;;;;;4924083;29;19921;-89
2022/07/05 02:11:35;;;;;;;;;;;;;;;;;;4926285;29;19914;-90
2022/07/05 02:14:00;;;;;;;;;;;;;;;;;;4959456;28;19923;-88
2022/07/05 02:16:29;;;;;;;;;;;;;;;;;;4944015;29;19914;-89
2022/07/05 02:18:55;;;;;;;;;;;;;;;;;;4927333;29;19926;-90
2022/07/05 02:21:21;;;;;;;;;;;;;;;;;;4927525;29;19918;-89
2022/07/05 02:23:48;;;;;;;;;;;;;;;;;;4932011;29;19981;-88
2022/07/05 02:26:14;;;;;;;;;;;;;;;;;;4931538;29;19957;-89
2022/07/05 02:28:44;;;;;;;;;;;;;;;;;;4930267;29;19918;-90
2022/07/05 02:31:11;;;;;;;;;;;;;;;;;;4928757;29;19914;-89
2022/07/05 02:33:38;;;;;;;;;;;;;;;;;;4926969;29;20392;-90
2022/07/05 02:36:03;;;;;;;;;;;;;;;;;;4926591;29;19953;-91
2022/07/05 02:38:28;;;;;;;;;;;;;;;;;;4926467;29;20377;-91
2022/07/05 02:41:00;;;;;;;;;;;;;;;;;;4927192;29;19922;-91
2022/07/05 02:43:28;;;;;;;;;;;;;;;;;;4928560;29;19914;-92
2022/07/05 02:45:53;;;;;;;;;;;;;;;;;;4926817;29;19962;-88
2022/07/05 02:48:19;;;;;;;;;;;;;;;;;;4942057;29;19915;-90
2022/07/05 02:50:45;;;;;;;;;;;;;;;;;;4926452;29;19997;-90
2022/07/05 02:53:11;;;;;;;;;;;;;;;;;;4958433;28;19918;-90
2022/07/05 02:55:37;;;;;;;;;;;;;;;;;;4925771;29;19925;-90
2022/07/05 02:58:03;;;;;;;;;;;;;;;;;;4925903;29;19922;-90
2022/07/05 03:00:30;;;;;;;;;;;;;;;;;;4926449;29;19965;-90
2022/07/05 03:02:55;;;;;;;;;;;;;;;;;;4927902;29;19926;-91
2022/07/05 03:05:21;;;;;;;;;;;;;;;;;;4931717;29;20397;-90
2022/07/05 03:07:53;;;;;;;;;;;;;;;;;;4934075;29;19925;-91
2022/07/05 03:10:19;;;;;;;;;;;;;;;;;;4938849;29;19915;-89
2022/07/05 03:12:44;;;;;;;;;;;;;;;;;;4935704;29;19914;-90
2022/07/05 03:15:11;;;;;;;;;;;;;;;;;;4980545;28;19938;-91
2022/07/05 03:17:37;;;;;;;;;;;;;;;;;;4946294;29;19930;-91
2022/07/05 03:20:03;;;;;;;;;;;;;;;;;;4975455;29;19914;-92
2022/07/05 03:22:29;;;;;;;;;;;;;;;;;;4943948;29;19922;-90
2022/07/05 03:24:54;;;;;;;;;;;;;;;;;;4955729;29;19914;-90
2022/07/05 03:27:20;;;;;;;;;;;;;;;;;;4930788;29;19925;-91
2022/07/05 03:29:59;;;;;;;;;;;;;;;;;;4993933;23;19922;-91
2022/07/05 03:32:25;;;;;;;;;;;;;;;;;;4997212;28;19914;-92
2022/07/05 03:34:50;;;;;;;;;;;;;;;;;;4995927;28;19941;-89
2022/07/05 03:37:19;;;;;;;;;;;;;;;;;;4995975;28;19914;-89
2022/07/05 03:39:44;;;;;;;;;;;;;;;;;;4995587;28;20004;-88
2022/07/05 03:42:10;;;;;;;;;;;;;;;;;;4995364;28;19921;-89
2022/07/05 03:44:36;;;;;;;;;;;;;;;;;;5011847;28;19918;-89
2022/07/05 03:47:05;;;;;;;;;;;;;;;;;;4996265;28;20373;-89
2022/07/05 03:49:44;;;;;;;;;;;;;;;;;;;;;
2022/07/05 03:52:13;;;;;;;;;;;;;;;;;;5011108;28;19914;-90
2022/07/05 03:54:38;;;;;;;;;;;;;;;;;;5011672;28;20442;-91
2022/07/05 03:57:07;;;;;;;;;;;;;;;;;;4979128;28;19914;-92
2022/07/05 03:59:35;;;;;;;;;;;;;;;;;;5011281;28;19913;-91
2022/07/05 04:02:07;;;;;;;;;;;;;;;;;;4978913;28;19961;-92
2022/07/05 04:04:35;;;;;;;;;;;;;;;;;;4979369;28;19914;-91
2022/07/05 04:07:03;;;;;;;;;;;;;;;;;;4995393;28;19910;-91
2022/07/05 04:09:29;;;;;;;;;;;;;;;;;;5012380;28;19921;-91
2022/07/05 04:11:54;;;;;;;;;;;;;;;;;;4995103;28;19914;-89
2022/07/05 04:14:23;;;;;;;;;;;;;;;;;;5002599;28;19949;-90
2022/07/05 04:16:51;;;;;;;;;;;;;;;;;;4996157;28;20012;-90
2022/07/05 04:19:16;;;;;;;;;;;;;;;;;;5011019;28;19949;-91
2022/07/05 04:21:42;;;;;;;;;;;;;;;;;;4995640;28;19918;-92
2022/07/05 04:24:08;;;;;;;;;;;;;;;;;;5012104;28;19921;-90
2022/07/05 04:26:36;;;;;;;;;;;;;;;;;;4995790;28;19940;-91
2022/07/05 04:29:02;;;;;;;;;;;;;;;;;;5012348;28;19922;-91
2022/07/05 04:31:35;;;;;;;;;;;;;;;;;;5012445;28;20407;-92
2022/07/05 04:34:01;;;;;;;;;;;;;;;;;;4994619;28;19922;-91
2022/07/05 04:36:29;;;;;;;;;;;;;;;;;;5001129;28;19985;-90
2022/07/05 04:38:56;;;;;;;;;;;;;;;;;;5005231;28;20032;-90
2022/07/05 04:41:23;;;;;;;;;;;;;;;;;;4987165;28;20016;-92
2022/07/05 04:43:51;;;;;;;;;;;;;;;;;;5021830;28;19920;-91
2022/07/05 04:46:19;;;;;;;;;;;;;;;;;;5023226;28;19914;-93
2022/07/05 04:48:46;;;;;;;;;;;;;;;;;;5009159;28;20440;-92
2022/07/05 04:51:14;;;;;;;;;;;;;;;;;;5022415;28;19914;-92
2022/07/05 04:53:42;;;;;;;;;;;;;;;;;;5017311;28;19965;-90
2022/07/05 04:56:07;;;;;;;;;;;;;;;;;;5013692;28;19914;-91
2022/07/05 04:58:40;;;;;;;;;;;;;;;;;;5012317;28;20360;-91
2022/07/05 05:01:06;;;;;;;;;;;;;;;;;;5016053;28;19964;-90
2022/07/05 05:03:34;;;;;;;;;;;;;;;;;;4998626;28;20372;-91
2022/07/05 05:08:44;;;;;;;;;;;;;;;;;;4981523;28;20357;-90
2022/07/05 05:11:11;;;;;;;;;;;;;;;;;;4984467;28;19945;-90
2022/07/05 05:13:36;;;;;;;;;;;;;;;;;;4981751;28;20002;-89
2022/07/05 05:16:04;;;;;;;;;;;;;;;;;;4980979;28;19914;-89
2022/07/05 05:18:39;;;;;;;;;;;;;;;;;;4984092;28;20372;-88
2022/07/05 05:21:05;;;;;;;;;;;;;;;;;;4980627;28;19921;-90
2022/07/05 05:23:33;;;;;;;;;;;;;;;;;;4982533;28;19911;-90
2022/07/05 05:26:01;;;;;;;;;;;;;;;;;;4980061;28;20004;-87
2022/07/05 05:28:34;;;;;;;;;;;;;;;;;;4979967;28;19976;-90
2022/07/05 05:31:02;;;;;;;;;;;;;;;;;;4978927;28;19925;-89
2022/07/05 05:33:33;;;;;;;;;;;;;;;;;;4979423;28;19914;-90
2022/07/05 05:36:01;;;;;;;;;;;;;;;;;;4962830;28;19918;-91
2022/07/05 05:38:36;;;;;;;;;;;;;;;;;;4962925;28;19916;-92
2022/07/05 05:41:06;;;;;;;;;;;;;;;;;;4946237;28;20372;-91
2022/07/05 05:43:33;;;;;;;;;;;;;;;;;;4950748;28;19946;-90
2022/07/05 05:46:04;;;;;;;;;;;;;;;;;;4978801;28;19914;-88
2022/07/05 05:48:29;;;;;;;;;;;;;;;;;;4977149;28;20448;-89
2022/07/05 05:50:56;;;;;;;;;;;;;;;;;;4976433;28;19968;-89
2022/07/05 05:53:22;;;;;;;;;;;;;;;;;;4959797;28;19913;-90
2022/07/05 05:55:49;;;;;;;;;;;;;;;;;;4942142;28;21372;-89
2022/07/05 05:58:18;;;;;;;;;;;;;;;;;;4974610;28;20494;-89
2022/07/05 06:00:43;;;;;;;;;;;;;;;;;;4975398;28;19916;-89
2022/07/05 06:03:14;;;;;;;;;;;;;;;;;;4959352;28;20292;-87
2022/07/05 06:05:40;;;;;;;;;;;;;;;;;;4977577;28;19921;-90
2022/07/05 06:08:06;;;;;;;;;;;;;;;;;;4979068;28;19962;-89
2022/07/05 06:10:36;;;;;;;;;;;;;;;;;;4979567;28;19914;-89
2022/07/05 06:13:04;;;;;;;;;;;;;;;;;;4978492;28;19922;-88
2022/07/05 06:15:37;;;;;;;;;;;;;;;;;;4976991;28;20049;-87
2022/07/05 06:18:05;;;;;;;;;;;;;;;;;;4978858;28;20384;-87
2022/07/05 06:23:16;;;;;;;;;;;;;;;;;;5027482;22;20322;-90
2022/07/05 06:32:00;;;;;;;;;;;;;;;;;;4956205;29;19930;-90
2022/07/05 06:34:34;;;;;;;;;;;;;;;;;;4966758;28;19978;-91
2022/07/05 06:37:00;;;;;;;;;;;;;;;;;;4952533;29;19922;-91
2022/07/05 06:39:25;;;;;;;;;;;;;;;;;;4951562;29;19989;-90
2022/07/05 06:41:55;;;;;;;;;;;;;;;;;;4936513;29;19937;-90
2022/07/05 06:44:23;;;;;;;;;;;;;;;;;;4967291;28;20003;-87
2022/07/05 06:47:00;;;;;;;;;;;;;;;;;;4950899;28;19914;-92
2022/07/05 06:49:25;;;;;;;;;;;;;;;;;;4937291;29;19925;-90
2022/07/05 06:51:59;;;;;;;;;;;;;;;;;;4941775;29;19919;-91
2022/07/05 06:54:27;;;;;;;;;;;;;;;;;;4941708;29;19946;-91
2022/07/05 06:57:16;;;;;;;;;;;;;;;;;;4954188;28;19915;-88
2022/07/05 07:02:41;;;;;;;;;;;;;;;;;;4943140;29;19970;-88
2022/07/05 07:05:07;;;;;;;;;;;;;;;;;;4942498;29;19919;-90
2022/07/05 07:10:17;;;;;;;;;;;;;;;;;;4940059;29;19914;-88
2022/07/05 07:12:42;;;;;;;;;;;;;;;;;;4953957;29;19936;-86
2022/07/05 07:15:08;;;;;;;;;;;;;;;;;;4939170;29;19919;-87
2022/07/05 07:20:30;;;;;;;;;;;;;;;;;;5006719;23;19922;-88
2022/07/05 07:33:19;;;;;;;;;;;;;;;;;;5009867;23;19981;-78
2022/07/05 07:35:45;;;;;;;;;;;;;;;;;;4942848;28;19925;-77
2022/07/05 07:38:11;;;;;;;;;;;;;;;;;;4975054;28;19914;-78
2022/07/05 07:40:36;;;;;;;;;;;;;;;;;;4958736;28;20431;-78
2022/07/05 07:43:02;;;;;;;;;;;;;;;;;;4942872;28;19937;-77
2022/07/05 07:45:30;;;;;;;;;;;;;;;;;;4958802;28;19920;-77
2022/07/05 07:47:56;;;;;;;;;;;;;;;;;;4958973;28;20017;-78
2022/07/05 07:50:21;;;;;;;;;;;;;;;;;;4943125;28;20005;-77
2022/07/05 07:52:47;;;;;;;;;;;;;;;;;;4958571;28;20033;-76
2022/07/05 07:55:13;;;;;;;;;;;;;;;;;;4958309;28;19918;-77
2022/07/05 07:57:39;;;;;;;;;;;;;;;;;;4958256;28;19937;-77
2022/07/05 08:00:05;;;;;;;;;;;;;;;;;;4942629;28;19911;-77
2022/07/05 08:02:37;;;;;;;;;;;;;;;;;;4958942;28;19914;-78
2022/07/05 08:05:04;;;;;;;;;;;;;;;;;;4976456;28;20281;-77
2022/07/05 08:07:30;;;;;;;;;;;;;;;;;;4958280;28;20387;-78
2022/07/05 08:09:56;;;;;;;;;;;;;;;;;;4958906;28;19969;-78
2022/07/05 08:12:22;;;;;;;;;;;;;;;;;;4960176;28;20002;-78
2022/07/05 08:14:47;;;;;;;;;;;;;;;;;;4959321;28;20008;-77
2022/07/05 08:17:13;;;;;;;;;;;;;;;;;;4974579;28;20404;-77
2022/07/05 08:22:22;;;;;;;;;;;;;;;;;;4958283;28;19921;-77
2022/07/05 08:24:48;;;;;;;;;;;;;;;;;;4975142;28;19914;-77
2022/07/05 08:27:13;;;;;;;;;;;;;;;;;;4973939;28;19946;-78
2022/07/05 08:29:39;;;;;;;;;;;;;;;;;;4974116;28;19964;-77
2022/07/05 08:32:04;;;;;;;;;;;;;;;;;;4957618;28;19965;-77
2022/07/05 08:34:30;;;;;;;;;;;;;;;;;;4957744;28;19980;-77
2022/07/05 08:36:55;;;;;;;;;;;;;;;;;;4957856;28;19918;-77
2022/07/05 08:39:23;;;;;;;;;;;;;;;;;;4957928;28;20333;-78
2022/07/05 08:41:49;;;;;;;;;;;;;;;;;;4973600;28;19910;-78
2022/07/05 08:44:15;;;;;;;;;;;;;;;;;;4974745;28;19942;-77
2022/07/05 08:46:41;;;;;;;;;;;;;;;;;;4957567;28;19964;-77
2022/07/05 08:49:06;;;;;;;;;;;;;;;;;;4974752;28;19979;-77
2022/07/05 08:51:32;;;;;;;;;;;;;;;;;;4973134;28;19914;-76
2022/07/05 08:53:57;;;;;;;;;;;;;;;;;;4974651;28;19922;-77
2022/07/05 08:56:22;;;;;;;;;;;;;;;;;;4973262;28;19937;-77
2022/07/05 08:58:51;;;;;;;;;;;;;;;;;;4956953;28;19940;-77
2022/07/05 09:01:16;;;;;;;;;;;;;;;;;;4972996;28;19915;-78
2022/07/05 09:03:42;;;;;;;;;;;;;;;;;;4974175;28;20274;-77
2022/07/05 09:06:07;;;;;;;;;;;;;;;;;;4956775;28;20323;-77
2022/07/05 09:08:33;;;;;;;;;;;;;;;;;;4956920;28;19997;-77
2022/07/05 09:10:58;;;;;;;;;;;;;;;;;;4940602;28;19914;-77
2022/07/05 09:13:24;;;;;;;;;;;;;;;;;;4941012;28;19921;-77
2022/07/05 09:15:49;;;;;;;;;;;;;;;;;;4972749;28;20333;-78
2022/07/05 09:18:15;;;;;;;;;;;;;;;;;;4973765;28;20013;-77
2022/07/05 09:20:40;;;;;;;;;;;;;;;;;;4956115;28;19914;-78
2022/07/05 09:23:06;;;;;;;;;;;;;;;;;;4973868;28;19914;-77
2022/07/05 09:25:31;;;;;;;;;;;;;;;;;;4973821;28;19914;-77
2022/07/05 09:27:57;;;;;;;;;;;;;;;;;;4973716;28;19914;-77
2022/07/05 09:30:22;;;;;;;;;;;;;;;;;;4956402;28;19918;-77
2022/07/05 09:32:48;;;;;;;;;;;;;;;;;;4973538;28;19914;-78
2022/07/05 09:35:13;;;;;;;;;;;;;;;;;;4973609;28;19918;-77
2022/07/05 09:37:38;;;;;;;;;;;;;;;;;;4973842;28;20051;-78
2022/07/05 09:40:04;;;;;;;;;;;;;;;;;;4956528;28;19983;-76
2022/07/05 09:42:29;;;;;;;;;;;;;;;;;;4973636;28;19961;-78
2022/07/05 09:44:55;;;;;;;;;;;;;;;;;;4972437;28;20003;-78
2022/07/05 09:47:21;;;;;;;;;;;;;;;;;;4972561;28;20347;-77
2022/07/05 09:49:46;;;;;;;;;;;;;;;;;;4940804;28;19945;-78
2022/07/05 09:52:12;;;;;;;;;;;;;;;;;;4956372;28;19918;-78
2022/07/05 09:54:37;;;;;;;;;;;;;;;;;;4972573;28;19969;-77
2022/07/05 09:57:03;;;;;;;;;;;;;;;;;;4956423;28;20064;-77
2022/07/05 09:59:28;;;;;;;;;;;;;;;;;;4956329;28;20339;-76
2022/07/05 10:01:54;;;;;;;;;;;;;;;;;;4973670;28;19915;-78
2022/07/05 10:04:20;;;;;;;;;;;;;;;;;;4956366;28;19921;-77
2022/07/05 10:06:46;;;;;;;;;;;;;;;;;;4973573;28;19919;-76
2022/07/05 10:09:11;;;;;;;;;;;;;;;;;;4956443;28;19965;-76
2022/07/05 10:11:37;;;;;;;;;;;;;;;;;;4956087;28;20407;-76
2022/07/05 10:14:03;;;;;;;;;;;;;;;;;;4956341;28;19922;-76
2022/07/05 10:16:31;;;;;;;;;;;;;;;;;;4956453;28;19964;-77
2022/07/05 10:18:57;;;;;;;;;;;;;;;;;;4940306;28;19914;-77
2022/07/05 10:21:22;;;;;;;;;;;;;;;;;;4956125;28;20328;-76
2022/07/05 10:23:48;;;;;;;;;;;;;;;;;;4972195;28;20000;-76
2022/07/05 10:26:16;;;;;;;;;;;;;;;;;;4956025;28;19977;-77
2022/07/05 10:28:42;;;;;;;;;;;;;;;;;;4955830;28;19946;-77
2022/07/05 10:31:11;;;;;;;;;;;;;;;;;;4956754;28;20340;-78
2022/07/05 10:33:36;;;;;;;;;;;;;;;;;;4977030;28;20008;-77
2022/07/05 10:36:01;;;;;;;;;;;;;;;;;;4959497;28;19998;-78
2022/07/05 10:38:27;;;;;;;;;;;;;;;;;;4959529;28;20032;-78
2022/07/05 10:40:52;;;;;;;;;;;;;;;;;;4943571;28;19910;-78
2022/07/05 10:43:18;;;;;;;;;;;;;;;;;;4976642;28;19914;-78
2022/07/05 10:45:43;;;;;;;;;;;;;;;;;;4976817;28;20272;-77
2022/07/05 10:48:09;;;;;;;;;;;;;;;;;;4943788;28;19914;-77
2022/07/05 10:57:30;;;;;;;;;;;;;;;;;;5019646;23;20318;-75
2022/07/05 10:59:56;;;;;;;;;;;;;;;;;;4926330;28;20020;-76
2022/07/05 11:02:21;;;;;;;;;;;;;;;;;;4975291;28;20272;-77
2022/07/05 11:04:47;;;;;;;;;;;;;;;;;;4975174;28;19972;-77
2022/07/05 11:07:12;;;;;;;;;;;;;;;;;;4942961;28;20021;-76
2022/07/05 11:09:38;;;;;;;;;;;;;;;;;;4975065;28;19922;-77
2022/07/05 11:12:04;;;;;;;;;;;;;;;;;;4958756;28;19985;-77
2022/07/05 11:14:30;;;;;;;;;;;;;;;;;;4987170;23;20021;-82
2022/07/05 11:16:55;;;;;;;;;;;;;;;;;;4958934;28;20002;-82
2022/07/05 11:19:21;;;;;;;;;;;;;;;;;;4942745;28;20407;-81
2022/07/05 11:21:46;;;;;;;;;;;;;;;;;;4971751;23;19950;-81
2022/07/05 11:24:11;;;;;;;;;;;;;;;;;;4976632;28;20403;-80
2022/07/05 11:26:37;;;;;;;;;;;;;;;;;;4975729;28;19964;-80
2022/07/05 11:29:02;;;;;;;;;;;;;;;;;;4976200;28;19976;-80
2022/07/05 11:31:27;;;;;;;;;;;;;;;;;;4974750;28;20383;-82
2022/07/05 11:33:54;;;;;;;;;;;;;;;;;;4958628;28;19914;-82
2022/07/05 11:36:21;;;;;;;;;;;;;;;;;;4974713;28;19972;-81
2022/07/05 11:38:47;;;;;;;;;;;;;;;;;;4975816;28;19914;-83
2022/07/05 11:41:12;;;;;;;;;;;;;;;;;;4974306;28;20296;-83
2022/07/05 11:43:38;;;;;;;;;;;;;;;;;;4973617;28;20079;-81
2022/07/05 11:46:04;;;;;;;;;;;;;;;;;;4958917;28;19917;-82
2022/07/05 11:48:29;;;;;;;;;;;;;;;;;;4975001;28;19914;-81
2022/07/05 11:50:55;;;;;;;;;;;;;;;;;;4973812;28;20278;-83
2022/07/05 11:53:20;;;;;;;;;;;;;;;;;;4974118;28;19961;-82
2022/07/05 11:55:45;;;;;;;;;;;;;;;;;;4958025;28;19921;-83
2022/07/05 11:58:11;;;;;;;;;;;;;;;;;;4958485;28;19916;-84
2022/07/05 12:00:36;;;;;;;;;;;;;;;;;;4958899;28;20396;-83
2022/07/05 12:03:01;;;;;;;;;;;;;;;;;;4974718;28;19949;-83
2022/07/05 12:05:27;;;;;;;;;;;;;;;;;;4957825;28;20048;-83
2022/07/05 12:07:52;;;;;;;;;;;;;;;;;;4974939;28;20273;-84
2022/07/05 12:13:02;;;;;;;;;;;;;;;;;;4973843;28;20136;-83
2022/07/05 12:15:28;;;;;;;;;;;;;;;;;;4973779;28;19914;-83
2022/07/05 12:17:54;;;;;;;;;;;;;;;;;;4974066;28;20288;-83
2022/07/05 12:20:23;;;;;;;;;;;;;;;;;;4958305;28;19921;-82
2022/07/05 12:22:48;;;;;;;;;;;;;;;;;;4974826;28;19918;-82
2022/07/05 12:25:13;;;;;;;;;;;;;;;;;;4975497;28;20393;-82
2022/07/05 12:27:39;;;;;;;;;;;;;;;;;;4973646;28;19913;-82
2022/07/05 12:30:04;;;;;;;;;;;;;;;;;;4957886;28;20293;-81
2022/07/05 12:32:30;;;;;;;;;;;;;;;;;;4975225;28;20539;-82
2022/07/05 12:34:56;;;;;;;;;;;;;;;;;;4975446;28;19922;-83
2022/07/05 12:37:21;;;;;;;;;;;;;;;;;;4973637;28;19943;-83
2022/07/05 12:39:47;;;;;;;;;;;;;;;;;;4958165;28;20309;-81
2022/07/05 12:42:32;;;;;;;;;;;;;;;;;;4957659;28;20320;-81
2022/07/05 12:44:57;;;;;;;;;;;;;;;;;;4957705;28;20444;-82
2022/07/05 12:47:23;;;;;;;;;;;;;;;;;;4974795;28;19952;-82
2022/07/05 12:49:48;;;;;;;;;;;;;;;;;;4974953;28;19914;-82
2022/07/05 12:52:14;;;;;;;;;;;;;;;;;;4974958;28;19915;-83
2022/07/05 13:00:10;;;;;;;;;;;;;;;;;;4974150;28;19914;-82
2022/07/05 13:02:37;;;;;;;;;;;;;;;;;;4957343;28;20293;-83
2022/07/05 13:05:02;;;;;;;;;;;;;;;;;;4973913;28;19914;-84
2022/07/05 13:07:28;;;;;;;;;;;;;;;;;;4974905;28;20392;-83
2022/07/05 13:09:53;;;;;;;;;;;;;;;;;;4974394;28;19921;-83
2022/07/05 13:12:23;;;;;;;;;;;;;;;;;;4957657;28;19937;-84
2022/07/05 13:14:51;;;;;;;;;;;;;;;;;;4957911;28;19918;-83
2022/07/05 13:17:17;;;;;;;;;;;;;;;;;;4973498;28;20277;-84
2022/07/05 13:19:46;;;;;;;;;;;;;;;;;;4957033;28;19914;-83
2022/07/05 13:22:11;;;;;;;;;;;;;;;;;;4973196;28;19925;-84
2022/07/05 13:24:37;;;;;;;;;;;;;;;;;;4956671;28;19921;-83
2022/07/05 13:27:03;;;;;;;;;;;;;;;;;;4956887;28;19972;-84
2022/07/05 13:29:35;;;;;;;;;;;;;;;;;;4973117;28;20009;-83
2022/07/05 13:32:23;;;;;;;;;;;;;;;;;;4912711;29;20032;-83
2022/07/05 13:34:50;;;;;;;;;;;;;;;;;;4914060;29;20459;-83
2022/07/05 13:37:15;;;;;;;;;;;;;;;;;;4913336;29;19915;-86
2022/07/05 13:39:41;;;;;;;;;;;;;;;;;;4914301;29;20329;-83
2022/07/05 13:42:06;;;;;;;;;;;;;;;;;;4914004;29;19946;-86
2022/07/05 13:44:32;;;;;;;;;;;;;;;;;;4914434;29;19911;-86
2022/07/05 13:46:57;;;;;;;;;;;;;;;;;;4914232;29;19938;-86
2022/07/05 13:49:23;;;;;;;;;;;;;;;;;;4914414;29;19915;-86
2022/07/05 13:51:48;;;;;;;;;;;;;;;;;;4914229;29;19915;-85
2022/07/05 13:54:14;;;;;;;;;;;;;;;;;;4915125;29;19919;-86
2022/07/05 13:56:39;;;;;;;;;;;;;;;;;;4914588;29;20264;-86
2022/07/05 13:59:04;;;;;;;;;;;;;;;;;;4914657;29;19911;-86
2022/07/05 14:01:30;;;;;;;;;;;;;;;;;;4915506;29;19931;-86
2022/07/05 14:03:56;;;;;;;;;;;;;;;;;;4914743;29;20010;-86
2022/07/05 14:06:22;;;;;;;;;;;;;;;;;;4914176;29;19922;-86
2022/07/05 14:08:56;;;;;;;;;;;;;;;;;;4927628;28;19910;-87
2022/07/05 14:11:22;;;;;;;;;;;;;;;;;;4974757;28;19914;-85
2022/07/05 14:13:47;;;;;;;;;;;;;;;;;;4957326;28;19969;-85
2022/07/05 14:16:13;;;;;;;;;;;;;;;;;;4956781;28;20296;-84
2022/07/05 14:18:38;;;;;;;;;;;;;;;;;;4987391;28;19914;-86
2022/07/05 14:24:34;;;;;;;;;;;;;;;;;;5009213;23;20446;-85
2022/07/05 15:05:30;;;;;;;;;;;;;;;;;;;;;
2022/07/05 15:08:27;;;;;;;;;;;;;;;;;;5013833;28;19941;-89
2022/07/05 15:14:47;;;;;;;;;;;;;;;;;;5014166;28;20276;-90
2022/07/05 15:20:43;;;;;;;;;;;;;;;;;;4959120;28;19926;-86
2022/07/05 15:23:09;;;;;;;;;;;;;;;;;;4928742;29;20004;-86
2022/07/05 15:25:55;;;;;;;;;;;;;;;;;;4930994;29;19985;-85
2022/07/05 15:28:21;;;;;;;;;;;;;;;;;;4926156;28;20330;-85
2022/07/05 15:30:47;;;;;;;;;;;;;;;;;;4926166;29;20001;-87
2022/07/05 15:33:13;;;;;;;;;;;;;;;;;;4943011;29;19925;-86
2022/07/05 15:35:41;;;;;;;;;;;;;;;;;;4926282;29;20324;-85
2022/07/05 15:38:10;;;;;;;;;;;;;;;;;;4925744;28;20266;-85
2022/07/05 15:40:36;;;;;;;;;;;;;;;;;;4942306;29;19915;-87
2022/07/05 15:43:02;;;;;;;;;;;;;;;;;;4943759;29;19917;-85
2022/07/05 15:45:31;;;;;;;;;;;;;;;;;;4942396;29;19918;-86
2022/07/05 15:47:59;;;;;;;;;;;;;;;;;;4926206;29;20296;-84
2022/07/05 15:50:25;;;;;;;;;;;;;;;;;;4959014;28;19925;-84
2022/07/05 15:52:51;;;;;;;;;;;;;;;;;;4926406;29;19914;-86
2022/07/05 15:55:19;;;;;;;;;;;;;;;;;;4925905;29;19920;-85
2022/07/05 15:57:45;;;;;;;;;;;;;;;;;;4928166;29;19915;-87
2022/07/05 16:00:11;;;;;;;;;;;;;;;;;;4927965;29;20267;-84
2022/07/05 16:02:44;;;;;;;;;;;;;;;;;;4941905;29;20012;-86
2022/07/05 16:05:12;;;;;;;;;;;;;;;;;;4926224;29;20432;-84
2022/07/05 16:07:41;;;;;;;;;;;;;;;;;;4926997;29;19914;-86
2022/07/05 16:10:10;;;;;;;;;;;;;;;;;;4942788;29;19990;-86
2022/07/05 16:12:37;;;;;;;;;;;;;;;;;;4926449;29;20135;-85
2022/07/05 16:15:06;;;;;;;;;;;;;;;;;;4928792;29;19919;-86
2022/07/05 16:17:41;;;;;;;;;;;;;;;;;;4944988;29;20005;-86
2022/07/05 16:20:07;;;;;;;;;;;;;;;;;;4929336;29;19919;-86
2022/07/05 16:22:36;;;;;;;;;;;;;;;;;;4930345;29;19911;-86
2022/07/05 16:25:01;;;;;;;;;;;;;;;;;;4931152;29;19914;-87
2022/07/05 16:27:31;;;;;;;;;;;;;;;;;;4934264;29;19915;-81
2022/07/05 16:29:59;;;;;;;;;;;;;;;;;;4937421;29;19953;-85
2022/07/05 16:32:25;;;;;;;;;;;;;;;;;;4953832;29;19938;-86
2022/07/05 16:34:50;;;;;;;;;;;;;;;;;;4939973;29;20093;-85
2022/07/05 16:37:16;;;;;;;;;;;;;;;;;;4956090;29;19953;-87
2022/07/05 16:39:43;;;;;;;;;;;;;;;;;;4936937;29;19941;-83
2022/07/05 16:42:13;;;;;;;;;;;;;;;;;;4954835;29;19922;-84
2022/07/05 16:44:39;;;;;;;;;;;;;;;;;;4955484;29;19918;-85
2022/07/05 16:47:04;;;;;;;;;;;;;;;;;;4938779;29;19937;-85
2022/07/05 16:49:31;;;;;;;;;;;;;;;;;;4937112;29;19914;-85
2022/07/05 16:51:57;;;;;;;;;;;;;;;;;;4956028;29;19930;-84
2022/07/05 16:54:23;;;;;;;;;;;;;;;;;;4932212;29;19955;-85
2022/07/05 16:56:53;;;;;;;;;;;;;;;;;;4933731;29;19993;-86
2022/07/05 16:59:22;;;;;;;;;;;;;;;;;;4933939;29;19921;-86
2022/07/05 17:01:48;;;;;;;;;;;;;;;;;;4932998;29;19954;-86
2022/07/05 17:04:15;;;;;;;;;;;;;;;;;;4949090;29;19941;-85
2022/07/05 17:06:41;;;;;;;;;;;;;;;;;;4949644;29;19978;-87
2022/07/05 17:09:06;;;;;;;;;;;;;;;;;;4931573;29;19925;-87
2022/07/05 17:11:32;;;;;;;;;;;;;;;;;;4946785;29;19921;-85
2022/07/05 17:13:57;;;;;;;;;;;;;;;;;;4928126;29;19915;-85
2022/07/05 17:16:26;;;;;;;;;;;;;;;;;;4943475;29;19910;-86
2022/07/05 17:18:55;;;;;;;;;;;;;;;;;;4942885;29;20001;-87
2022/07/05 17:21:20;;;;;;;;;;;;;;;;;;4943435;29;19915;-87
2022/07/05 17:23:46;;;;;;;;;;;;;;;;;;4933007;29;19921;-87
2022/07/05 17:26:14;;;;;;;;;;;;;;;;;;4942887;29;20266;-88
2022/07/05 17:28:43;;;;;;;;;;;;;;;;;;4926700;29;20365;-87
2022/07/05 17:31:09;;;;;;;;;;;;;;;;;;4927702;29;19918;-86
2022/07/05 17:33:35;;;;;;;;;;;;;;;;;;4927837;29;19914;-88
2022/07/05 17:36:01;;;;;;;;;;;;;;;;;;4928148;29;19926;-87
2022/07/05 17:38:26;;;;;;;;;;;;;;;;;;4926821;28;19953;-86
2022/07/05 17:40:52;;;;;;;;;;;;;;;;;;4925627;29;19915;-85
2022/07/05 17:43:17;;;;;;;;;;;;;;;;;;4925633;29;19965;-88
2022/07/05 17:45:43;;;;;;;;;;;;;;;;;;4925318;29;19919;-87
2022/07/05 17:48:09;;;;;;;;;;;;;;;;;;4925047;28;19965;-87
2022/07/05 17:50:35;;;;;;;;;;;;;;;;;;4924472;29;19921;-88
2022/07/05 17:53:03;;;;;;;;;;;;;;;;;;4940698;29;19915;-87
2022/07/05 17:55:29;;;;;;;;;;;;;;;;;;4939796;29;19918;-87
2022/07/05 17:57:55;;;;;;;;;;;;;;;;;;4940817;29;19969;-89
2022/07/05 18:00:21;;;;;;;;;;;;;;;;;;4924815;29;19942;-87
2022/07/05 18:02:47;;;;;;;;;;;;;;;;;;4924343;29;19940;-87
2022/07/05 18:05:13;;;;;;;;;;;;;;;;;;4956075;29;19914;-87
2022/07/05 18:07:38;;;;;;;;;;;;;;;;;;4926098;29;19926;-86
2022/07/05 18:10:07;;;;;;;;;;;;;;;;;;4941168;29;19925;-89
2022/07/05 18:12:33;;;;;;;;;;;;;;;;;;4924023;29;19914;-87
2022/07/05 18:14:58;;;;;;;;;;;;;;;;;;4955966;29;19949;-86
2022/07/05 18:17:24;;;;;;;;;;;;;;;;;;4923337;29;20065;-87
2022/07/05 18:19:50;;;;;;;;;;;;;;;;;;4938809;29;19918;-87
2022/07/05 18:22:17;;;;;;;;;;;;;;;;;;4923482;29;19980;-87
2022/07/05 18:24:43;;;;;;;;;;;;;;;;;;4940905;29;19914;-87